Aperçu de la semaine du 4 mai 2026
En espérant que le dicton « Le trois fait le mois » ne s’applique pas pour le mois de mai […]
En espérant que le dicton « Le trois fait le mois » ne s’applique pas pour le mois de mai […]
Les plus récentes observations
| – | Température | Rafale | Pression | Humidité | Pluie | Valide à | Vent max | T.Max jour | T.Min jour | T. max hier | T. min hier |
|---|---|---|---|---|---|---|---|---|---|---|---|
| Chicoutimi | 14.7 °C | 13 kmh WNW | 1000.8 hPa | 33 % | 0.0 mm | 13:40 | 13.0 km/h à 12:28 | 14.8 °C à 13:37 | -2.9 °C à 05:32 | 9.4°C | 0.6°C |
| Métabetchouan | 10.7 °C | 11 kmh NNE | 1000.3 hPa | 50 % | 0.0 mm | 13:40 | 11.3 km/h à 13:17 | 10.7 °C à 13:39 | -0.4 °C à 05:22 | 6.5°C | -0.2°C |
| St-Bruno | 12.6 °C | 24 kmh NE | 1000.9 hPa | 33 % | 0.0 mm | 13:40 | 24.1 km/h à 13:27 | 12.9 °C à 13:37 | -3.9 °C à 04:59 | 7.2°C | -1.3°C |
| St-Félicien | 11.4 °C | 24 kmh SE | 1001.0 hPa | 45 % | 0.0 mm | 13:40 | 24.1 km/h à 12:50 | 11.7 °C à 13:09 | -3.5 °C à 05:52 | 7.3°C | -1.6°C |
| La Baie | 11.8 °C | 18 kmh O | 1000.8 hPa | 33 % | 0.0 mm | 13:40 | 18.5 km/h à 12:57 | 11.8 °C à 13:39 | -2.5 °C à 05:43 | 7.1°C | 1.1°C |
| Dolbeau | 12.9 °C | 16 kmh SE | 1001.8 hPa | 33 % | 0.0 mm | 13:40 | 18.5 km/h à 09:48 | 12.9 °C à 13:39 | -2.9 °C à 03:58 | 6.3°C | -1.6°C |
| St-Honoré | 12.9 °C | 20 kmh NNE | 1000.2 hPa | 37 % | 0.0 mm | 13:40 | 20.4 km/h à 13:38 | 13.0 °C à 13:38 | -6.6 °C à 05:31 | 7.7°C | -3.1°C |
| Laterrière | ND | ND | ND | ND | ND | ND | ND km/h à ND | ND °C à ND | ND °C à ND | ND°C | ND°C |
| Lac Bouchette | 11.6 °C | 23 kmh OSO | 999.7 hPa | 44 % | 0.0 mm | 13:40 | 25.9 km/h à 12:34 | 11.8 °C à 13:23 | -4.4 °C à 04:15 | 5.4°C | -2.6°C |
| Cap au Leste | 11.0 °C | 21 kmh SSE | 1000.6 hPa | 38 % | 0.0 mm | 13:40 | 20.9 km/h à 11:57 | 13.1 °C à 13:11 | -1.7 °C à 05:15 | 6.1°C | 0.4°C |
| Larouche | 14.3 °C | 14 kmh NNE | 1002.2 hPa | 37 % | 0.0 mm | 13:40 | 14.8 km/h à 12:49 | 14.3 °C à 13:39 | -1.8 °C à 04:16 | 6.8°C | -0.6°C |
| La Chapelle | 7.8 °C | 27 kmh W | 999.4 hPa | 36 % | 0.0 mm | 13:40 | 29.6 km/h à 10:11 | 8.0 °C à 13:37 | -6.9 °C à 04:51 | 2.3°C | -3.6°C |
| Le Norvégien | 13.1 °C | 19 kmh SSE | 1001.4 hPa | 30 % | 0.0 mm | 13:40 | 19.3 km/h à 11:08 | 13.1 °C à 13:21 | -2.8 °C à 05:39 | 5.9°C | -2.6°C |
| Sainte-Monique | 14.4 °C | 18 kmh NO | 1001.2 hPa | 33 % | 0.0 mm | 13:40 | 19.3 km/h à 12:21 | 14.4 °C à 13:39 | -3.8 °C à 05:07 | 8.9°C | -1.7°C |
| L’Anse-St-Jean | 12.9 °C | 29 kmh O | 1000.8 hPa | 26 % | 0.0 mm | 13:40 | 31.5 km/h à 11:51 | 13.2 °C à 12:44 | -3.3 °C à 05:15 | 8.7°C | -1.7°C |
| St-Nazaire | 13.2 °C | 15 kmh OSO | 1000.1 hPa | 30 % | 0.0 mm | 13:40 | 14.8 km/h à 12:50 | 13.3 °C à 13:38 | -2.2 °C à 05:10 | 6.6°C | 0.3°C |
| Labrecque | 11.4 °C | 21 kmh ONO | 1001.7 hPa | 38 % | 0.0 mm | 13:40 | 21.0 km/h à 13:34 | 12.1 °C à 12:31 | -4.4 °C à 05:25 | 5.2°C | -1.7°C |
| Hébertville | 12.9 °C | 19 kmh N | 1000.4 hPa | 41 % | 0.0 mm | 13:40 | 19.3 km/h à 13:38 | 12.9 °C à 13:39 | -2.9 °C à 04:46 | 5.9°C | -2.1°C |
| Girardville | 12.7 °C | 18 kmh SSE | 1000.2 hPa | 40 % | 0.0 mm | 13:40 | 18.5 km/h à 11:01 | 12.8 °C à 13:34 | -5.1 °C à 04:17 | 7.8°C | -3.0°C |
| Camping Alma | 12.2 °C | 10 kmh ONO | 1001.2 hPa | 39 % | 0.0 mm | 13:40 | 16.7 km/h à 10:19 | 12.2 °C | -2.3 °C à 05:32 | 5.9°C | -0.3°C |
| Valinouet | 5.4 °C | 0 kmh N | 1004.0 hPa | 43 % | ND | 13:40 | 0.0 km/h à 06:07 | 5.7 °C à 13:30 | -1.8 °C à 00:22 | -0.3°C | -2.7°C |
| ÉcolAction | 12.4 °C | 16 kmh NW | 999.4 hPa | 31 % | 0.0 mm | 13:40 | 16.7 km/h à 12:23 | 12.8 °C à 13:23 | -3.1 °C à 05:52 | 7.6°C | -0.1°C |
| Chicoutimi Nord | 13.8 °C | 18 kmh O | 999.6 hPa | 33 % | 13:40 | 18.5 km/h à 13:05 | 13.8 °C à 13:38 | -1.9 °C à 05:01 | ND | ND | |
| L’Or Piste Mont-Valin | ND | ND | ND | ND | ND | ND | ND km/h à ND | ND °C à ND | ND °C à ND | ND°C | ND°C |
| Camping Belley | ND | ND | ND | ND | ND | ND km/h à ND | ND °C à ND | ND °C à ND | ND°C | ND°C |
Mise à jour de samedi sur l’état des cours d’eau
MétéoChicoutimi poursuit la surveillance de l’état des cours d’eau dans la région. La situation s’est améliorée du côté de Saguenay, […]